»·PEaware :: AAL2391 KMIA-MBPV

AAL2391 :: KMIA-MBPV

FLIGHT INFORMATION

Flight Status: Arrived
Operator:
American Airlines
More flights by this operator :: More flights under this callsign
Pilot: Drew L. (13237)
Aircraft: BOEING 737-800
(B738)
More flights by this aircraft type
Origin: KMIA Miami Intl
United States
Destination: MBPV Providenciales Intl
Turks and Caicos Islands
More flights between these airports :: More routes between these airports
Route: SKIPS BR53V ZQA A555 MICAS PVN
File this flight plan on PilotEdge
Remarks: PBN / A1B1C1D1S1S2 DOF / 180620 REG / N806SB OPR / AAL PER / C RMK / TCAS SIMBRIEF
Altitude:
(Current/Filed)
35,000ft
Speed:
(Current/Filed)
463kts
Departed: 20-Jun-18 12:18 AM
Arrived: 20-Jun-18 01:41 AM
Distance/Time
Traveled:
502nm/1:23
Distance/Time
To Go:
Arrived

Flight Plot

Page will automatically refresh every two minutes.

Flight plan parsing failed; only flown route is shown


Map Options




Map Legend


Flown Route
Filed Route
Departure Airport
Arrival Airport
Navaid (VOR, NDB)
Fix

Horizontal Profiles

Position Reports

Time Latitude Longitude Heading Altitude Ground
Speed
19-Jun-18 23:55 25.798280 -80.280805 224 13ft 0kts
19-Jun-18 23:56 25.798280 -80.280805 224 13ft 0kts
19-Jun-18 23:57 25.798280 -80.280805 224 13ft 0kts
19-Jun-18 23:58 25.798280 -80.280805 224 13ft 0kts
19-Jun-18 23:59 25.798280 -80.280805 224 13ft 0kts
20-Jun-18 00:00 25.798280 -80.280805 224 13ft 0kts
20-Jun-18 00:01 25.798280 -80.280805 224 13ft 0kts
20-Jun-18 00:02 25.798280 -80.280805 224 13ft 0kts
20-Jun-18 00:03 25.798280 -80.280805 224 13ft 0kts
20-Jun-18 00:04 25.798280 -80.280805 224 13ft 0kts
20-Jun-18 00:05 25.798280 -80.280805 224 13ft 0kts
20-Jun-18 00:06 25.798280 -80.280805 224 13ft 0kts
20-Jun-18 00:07 25.798280 -80.280805 224 13ft 0kts
20-Jun-18 00:08 25.798280 -80.280805 224 13ft 0kts
20-Jun-18 00:09 25.798280 -80.280805 224 13ft 0kts
20-Jun-18 00:10 25.798280 -80.280805 224 13ft 0kts
20-Jun-18 00:11 25.798280 -80.280804 224 13ft 0kts
20-Jun-18 00:12 25.798544 -80.280516 224 13ft 2kts
20-Jun-18 00:13 25.798769 -80.280036 268 14ft 2kts
20-Jun-18 00:14 25.798776 -80.279635 268 14ft 0kts
20-Jun-18 00:15 25.798800 -80.279850 284 13ft 7kts
20-Jun-18 00:16 25.799417 -80.286048 267 14ft 36kts
20-Jun-18 00:17 25.799406 -80.298188 291 14ft 30kts
20-Jun-18 00:18 25.801067 -80.292583 87 14ft 117kts
20-Jun-18 00:19 25.798271 -80.241258 116 2008ft 185kts
20-Jun-18 00:20 25.772040 -80.191480 121 4389ft 200kts
20-Jun-18 00:21 25.744840 -80.133791 107 6563ft 231kts
20-Jun-18 00:22 25.723621 -80.055532 106 8289ft 286kts
20-Jun-18 00:23 25.701760 -79.968766 102 10659ft 308kts
20-Jun-18 00:24 25.682707 -79.871062 101 12835ft 334kts
20-Jun-18 00:25 25.662445 -79.768366 101 15353ft 348kts
20-Jun-18 00:26 25.640620 -79.662328 102 17759ft 361kts
20-Jun-18 00:27 25.616200 -79.552982 101 20002ft 372kts
20-Jun-18 00:28 25.591013 -79.440750 101 22082ft 381kts
20-Jun-18 00:29 25.565604 -79.327981 101 23959ft 389kts
20-Jun-18 00:30 25.539108 -79.211260 101 25732ft 395kts
20-Jun-18 00:31 25.512085 -79.093137 101 27352ft 401kts
20-Jun-18 00:32 25.484460 -78.972705 101 28843ft 407kts
20-Jun-18 00:33 25.456652 -78.851872 101 30478ft 404kts
20-Jun-18 00:34 25.429290 -78.733048 101 32130ft 396kts
20-Jun-18 00:35 25.402172 -78.616373 101 33596ft 388kts
20-Jun-18 00:36 25.375416 -78.501813 101 34770ft 384kts
20-Jun-18 00:37 25.348408 -78.386238 101 35039ft 401kts
20-Jun-18 00:38 25.322116 -78.273886 102 35045ft 423kts
20-Jun-18 00:39 25.289686 -78.148218 109 35046ft 427kts
20-Jun-18 00:40 25.243759 -78.027101 109 35039ft 429kts
20-Jun-18 00:41 25.198289 -77.905761 109 35038ft 428kts
20-Jun-18 00:42 25.152805 -77.784183 109 35038ft 428kts
20-Jun-18 00:43 25.107564 -77.663059 109 35036ft 428kts
20-Jun-18 00:44 25.062209 -77.542148 109 35034ft 426kts
20-Jun-18 00:45 25.013328 -77.423598 120 35050ft 429kts
20-Jun-18 00:46 24.943696 -77.317428 122 35041ft 428kts
20-Jun-18 00:47 24.874087 -77.211281 122 35038ft 429kts
20-Jun-18 00:48 24.804699 -77.105008 122 35037ft 429kts
20-Jun-18 00:49 24.735256 -76.998458 122 35039ft 429kts
20-Jun-18 00:50 24.665545 -76.892082 122 35035ft 431kts
20-Jun-18 00:51 24.595457 -76.785314 122 35036ft 433kts
20-Jun-18 00:52 24.525009 -76.678368 122 35041ft 433kts
20-Jun-18 00:53 24.454643 -76.571683 122 35036ft 433kts
20-Jun-18 00:54 24.384140 -76.464815 122 35033ft 433kts
20-Jun-18 00:55 24.313684 -76.357986 122 35035ft 433kts
20-Jun-18 00:56 24.243392 -76.251597 123 35042ft 433kts
20-Jun-18 00:57 24.172653 -76.145322 123 35036ft 433kts
20-Jun-18 00:58 24.101765 -76.038869 123 35038ft 433kts
20-Jun-18 00:59 24.030881 -75.932475 123 35034ft 433kts
20-Jun-18 01:00 23.960025 -75.826720 123 35036ft 433kts
20-Jun-18 01:01 23.889055 -75.720983 123 35036ft 433kts
20-Jun-18 01:02 23.818099 -75.615327 123 35032ft 433kts
20-Jun-18 01:03 23.746874 -75.509267 123 35034ft 433kts
20-Jun-18 01:04 23.675986 -75.403678 123 35031ft 433kts
20-Jun-18 01:05 23.604502 -75.298003 123 35045ft 437kts
20-Jun-18 01:06 23.541436 -75.185698 116 35042ft 434kts
20-Jun-18 01:07 23.483591 -75.070288 116 35034ft 436kts
20-Jun-18 01:08 23.424967 -74.953711 116 35032ft 442kts
20-Jun-18 01:09 23.365674 -74.836071 115 35025ft 445kts
20-Jun-18 01:10 23.306389 -74.718527 115 35022ft 443kts
20-Jun-18 01:11 23.247191 -74.601089 115 35016ft 445kts
20-Jun-18 01:12 23.188038 -74.483646 115 35017ft 443kts
20-Jun-18 01:13 23.128941 -74.366583 116 35020ft 443kts
20-Jun-18 01:14 23.068469 -74.250150 116 33857ft 442kts
20-Jun-18 01:15 23.007421 -74.133449 117 31900ft 450kts
20-Jun-18 01:16 22.945372 -74.015087 117 29924ft 455kts
20-Jun-18 01:17 22.883322 -73.896555 119 27952ft 443kts
20-Jun-18 01:18 22.821995 -73.779521 120 25907ft 453kts
20-Jun-18 01:19 22.759755 -73.660521 120 23728ft 460kts
20-Jun-18 01:20 22.697335 -73.540971 120 21976ft 437kts
20-Jun-18 01:21 22.641344 -73.433635 121 20701ft 398kts
20-Jun-18 01:22 22.586954 -73.329334 121 18779ft 395kts
20-Jun-18 01:23 22.534032 -73.227693 121 16573ft 385kts
20-Jun-18 01:24 22.482198 -73.128118 120 14900ft 384kts
20-Jun-18 01:25 22.430234 -73.028061 120 13296ft 374kts
20-Jun-18 01:26 22.379691 -72.931712 120 11697ft 366kts
20-Jun-18 01:27 22.329623 -72.837487 120 10270ft 349kts
20-Jun-18 01:28 22.285696 -72.754772 120 10140ft 292kts
20-Jun-18 01:29 22.244875 -72.678417 124 8766ft 296kts
20-Jun-18 01:30 22.176782 -72.631062 153 7305ft 295kts
20-Jun-18 01:31 22.104518 -72.590812 152 6231ft 282kts
20-Jun-18 01:32 22.038370 -72.553727 152 5753ft 253kts
20-Jun-18 01:33 21.976128 -72.518762 152 4557ft 248kts
20-Jun-18 01:34 21.916095 -72.485009 152 3355ft 240kts
20-Jun-18 01:35 21.857921 -72.456637 178 2240ft 218kts
20-Jun-18 01:36 21.802492 -72.454257 143 1719ft 186kts
20-Jun-18 01:37 21.780174 -72.406657 97 1676ft 171kts
20-Jun-18 01:38 21.778423 -72.356931 92 1341ft 167kts
20-Jun-18 01:39 21.775896 -72.311142 96 655ft 148kts
20-Jun-18 01:40 21.773707 -72.268168 92 25ft 138kts
20-Jun-18 01:41 21.774472 -72.259156 2 23ft 0kts

Navigation Log

Ident Type
Flight plan parsing failed, navigation log unavailable